Etusivu
METAR-TAF:

METAR-TAF

Lentoasemat :

Bagdad, Irak

Bagdadin kansainvälinen lentoasema

Leveyspiiri: 33-15-45N, Pituuspiiri: 44-14-04E, korkeus merenpinnasta: 35 m

Tämänhetkinen sää

Tämä raportti tehtiin 17 tuntia ja 59 minuuttia sitten, kello 15.00 UTC
Tuuli 5 kn etelästä
Lämpötila 16°C
Kosteus 63%
Ilmanpaine 1016 hPa
Näkyvyys 10 km tai enemmän
Hajonneita pilviä 3000 ft:n korkeudessa

METAR: ORBI 201500Z 18005KT 9999 BKN030 16/09 Q1016 NOSIG

Aika: 11:59 (08:59 UTC)

Sääennuste

Tämä raportti tehtiin 22 tuntia ja 59 minuuttia sitten, kello 10.00 UTC
Ennuste voimassa 20. päivästä klo 12 UTC - 21. päivään klo 12 UTC
Tuuli 3 kn eri suunnista
Näkyvyys: 7000 m
Hajanaisia pilviä 3000 ft:n korkeudessa

TAF: ORBI 201000Z 2012/2112 VRB03KT 7000 SCT030

Säähavainnot ja -ennusteet yli 4000 lentoasemalta (METAR- ja TAF-raportit).

Käytössä olevat sääasemat on merkitty karttaan keltaisilla ja punaisilla pisteillä.

Aseta hiiri pisteen päälle nähdäksesi sääaseman nimen.

Klikkaa sitten nähdäksesi säähavainnot ja -ennusteet.

Kartan vaihtaminen: klikkaa mustalla rastilla varustettuja vihreitä pisteitä, niin voit zoomata sisään; viivalla varustettua vihreää pistettä, niin voit zoomata ulos tai vihreitä nuolia, niin pääset viereisille kartoille.


METAR-TAF: